Main page
METAR-TAF:

METAR-TAF

Airports :

Lydd, England

Lydd Airport

latitude: 50-57N, longitude: 000-56E, elevation: 3 m

Current weather observation

The report was made 26 minutes ago, at 06:50 UTC
Wind 10 kt from the West
Temperature 16°C
Humidity 82%
Pressure 1016 hPa
Visibility 10 km or more

METAR: EGMD 190650Z AUTO 27010KT 9999 NCD 16/13 Q1016

Time: 08:16 (07:16 UTC)

Forecast

The report was made 2 hours and 18 minutes ago, at 04:58 UTC
Forecast valid from 19 at 06 UTC to 19 at 15 UTC
Wind 10 kt from the West
Visibility 10 km or more
Scattered clouds at a height of 2500 ft
Becoming
from 19 at 12 UTC to 19 at 15 UTC
Wind 20 kt from the West/Southwest with gusts up to 30 kt

TAF: EGMD 190458Z 1906/1915 28010KT 9999 SCT025 BECMG 1912/1915 24020G30KT

Weather observations and forecasts of more than 4000 airports (METAR and TAF reports).

The available stations are represented by yellow and red dots on the map.

Hover mouse over dot to see the name of the station.

Then click to see weather observations and forecasts.

To change the map : click on the green buttons with a black cross to zoom in, on the green button with a dash to zoom out, or on the green arrows for adjacent maps.


METAR-TAF: